createdAt,value
2018-02-14T00:01:55.468Z,6.25
2018-02-14T00:04:24.812Z,6.62
2018-02-14T00:06:53.708Z,6.07
2018-02-14T00:09:22.624Z,6.05
2018-02-14T00:11:51.516Z,8.65
2018-02-14T00:14:20.566Z,5.15
2018-02-14T00:16:49.433Z,5.55
2018-02-14T00:19:18.757Z,6.35
2018-02-14T00:21:47.719Z,6.93
2018-02-14T00:24:16.765Z,6.37
2018-02-14T00:26:45.632Z,6.75
2018-02-14T00:29:14.528Z,6.03
2018-02-14T00:31:43.439Z,6.20
2018-02-14T00:34:12.361Z,6.20
2018-02-14T00:36:41.266Z,6.80
2018-02-14T00:39:10.139Z,5.78
2018-02-14T00:41:39.325Z,5.47
2018-02-14T00:44:08.447Z,6.03
2018-02-14T00:46:37.312Z,5.60
2018-02-14T00:49:06.292Z,5.62
2018-02-14T00:51:35.214Z,5.55
2018-02-14T00:54:04.732Z,5.87
2018-02-14T00:56:34.221Z,5.05
2018-02-14T00:59:03.104Z,6.70
2018-02-14T01:01:31.974Z,6.62
2018-02-14T01:04:01.048Z,6.53
2018-02-14T01:06:30.282Z,6.03
2018-02-14T01:08:59.154Z,7.32
2018-02-14T01:11:28.023Z,6.32
2018-02-14T01:13:56.911Z,6.70
2018-02-14T01:16:25.827Z,6.32
2018-02-14T01:18:54.684Z,5.93
2018-02-14T01:21:23.578Z,6.15
2018-02-14T01:23:52.465Z,6.85
2018-02-14T01:26:21.462Z,6.57
2018-02-14T01:28:50.360Z,5.97
2018-02-14T01:31:19.233Z,5.12
2018-02-14T01:33:48.102Z,6.32
2018-02-14T01:36:17.017Z,7.12
2018-02-14T01:38:45.888Z,6.18
2018-02-14T01:41:14.756Z,7.55
2018-02-14T01:43:43.641Z,6.47
2018-02-14T01:46:17.152Z,6.57
2018-02-14T01:48:46.072Z,6.05
2018-02-14T01:51:15.016Z,7.37
2018-02-14T01:53:43.879Z,6.57
2018-02-14T01:56:12.767Z,5.65
2018-02-14T01:58:41.630Z,6.85
2018-02-14T02:01:10.503Z,6.70
2018-02-14T02:03:39.397Z,5.28
2018-02-14T02:06:08.269Z,5.95
2018-02-14T02:08:37.595Z,5.65
2018-02-14T02:11:06.492Z,6.00
2018-02-14T02:13:35.375Z,5.28
2018-02-14T02:16:04.237Z,7.28
2018-02-14T02:18:33.119Z,6.07
2018-02-14T02:21:02.005Z,6.10
2018-02-14T02:23:30.867Z,6.60
2018-02-14T02:26:06.168Z,5.28
2018-02-14T02:28:35.125Z,6.15
2018-02-14T02:31:03.976Z,5.95
2018-02-14T02:33:32.872Z,6.85
2018-02-14T02:36:01.737Z,6.53
2018-02-14T02:38:30.604Z,7.00
2018-02-14T02:40:59.501Z,6.65
2018-02-14T02:43:28.356Z,6.40
2018-02-14T02:45:57.216Z,4.97
2018-02-14T02:48:28.704Z,5.78
2018-02-14T02:50:57.568Z,6.40
2018-02-14T02:53:26.442Z,6.47
2018-02-14T02:55:55.369Z,6.68
2018-02-14T02:58:24.237Z,5.40
2018-02-14T03:00:53.115Z,5.25
2018-02-14T03:03:22.509Z,5.85
2018-02-14T03:05:51.431Z,6.43
2018-02-14T03:08:20.297Z,6.00
2018-02-14T03:10:49.415Z,8.05
2018-02-14T03:13:18.287Z,5.90
2018-02-14T03:15:47.164Z,6.53
2018-02-14T03:18:16.068Z,5.50
2018-02-14T03:20:44.930Z,6.32
2018-02-14T03:23:13.801Z,4.80
2018-02-14T03:25:42.703Z,5.72
2018-02-14T03:28:11.573Z,5.57
2018-02-14T03:30:40.446Z,5.87
2018-02-14T03:33:09.336Z,7.15
2018-02-14T03:35:38.221Z,6.65
2018-02-14T03:38:07.085Z,5.30
2018-02-14T03:40:35.973Z,5.93
2018-02-14T03:43:04.845Z,7.05
2018-02-14T03:45:33.781Z,6.12
2018-02-14T03:48:02.713Z,6.12
2018-02-14T03:50:31.593Z,7.53
2018-02-14T03:53:00.662Z,5.78
2018-02-14T03:55:29.550Z,6.12
2018-02-14T03:57:58.488Z,5.57
2018-02-14T04:00:27.352Z,5.95
2018-02-14T04:02:56.259Z,6.53
2018-02-14T04:05:25.136Z,4.87
2018-02-14T04:07:53.996Z,5.93
2018-02-14T04:10:22.887Z,6.10
2018-02-14T04:12:51.996Z,5.15
2018-02-14T04:15:20.860Z,5.85
2018-02-14T04:17:49.760Z,6.57
2018-02-14T04:20:18.616Z,4.78
2018-02-14T04:22:47.486Z,4.53
2018-02-14T04:25:16.389Z,6.60
2018-02-14T04:27:45.277Z,6.30
2018-02-14T04:30:17.305Z,5.55
2018-02-14T04:32:46.173Z,6.40
2018-02-14T04:35:15.032Z,6.18
2018-02-14T04:37:43.923Z,5.85
2018-02-14T04:40:12.794Z,5.93
2018-02-14T04:42:41.651Z,5.37
2018-02-14T04:45:10.533Z,6.18
2018-02-14T04:47:39.414Z,6.60
2018-02-14T04:50:08.282Z,5.62
2018-02-14T04:52:37.165Z,6.20
2018-02-14T04:55:06.062Z,5.18
2018-02-14T04:57:34.929Z,5.15
2018-02-14T05:00:03.844Z,6.68
2018-02-14T05:02:32.704Z,5.85
2018-02-14T05:05:01.567Z,6.00
2018-02-14T05:07:30.484Z,5.35
2018-02-14T05:09:59.347Z,5.62
2018-02-14T05:12:28.233Z,6.28
2018-02-14T05:14:57.281Z,7.07
2018-02-14T05:17:26.257Z,6.18
2018-02-14T05:19:55.142Z,7.12
2018-02-14T05:22:24.028Z,6.22
2018-02-14T05:24:52.894Z,7.78
2018-02-14T05:27:21.786Z,5.32
2018-02-14T05:29:50.681Z,5.30
2018-02-14T05:32:19.568Z,5.85
2018-02-14T05:34:48.455Z,5.75
2018-02-14T05:37:17.374Z,5.87
2018-02-14T05:39:46.420Z,5.95
2018-02-14T05:42:15.462Z,5.53
2018-02-14T05:44:44.366Z,6.97
2018-02-14T05:47:13.343Z,5.90
2018-02-14T05:49:42.226Z,5.82
2018-02-14T05:52:11.137Z,6.50
2018-02-14T05:54:40.085Z,5.47
2018-02-14T05:57:09.147Z,6.07
2018-02-14T05:59:38.045Z,5.60
2018-02-14T06:02:06.964Z,6.57
2018-02-14T06:04:35.846Z,4.75
2018-02-14T06:07:04.877Z,6.10
2018-02-14T06:09:33.740Z,6.72
2018-02-14T06:12:02.604Z,5.30
2018-02-14T06:14:31.491Z,6.45
2018-02-14T06:17:00.458Z,6.47
2018-02-14T06:19:29.348Z,5.65
2018-02-14T06:21:58.283Z,6.80
2018-02-14T06:24:27.151Z,6.18
2018-02-14T06:26:56.008Z,6.68
2018-02-14T06:29:25.041Z,5.95
2018-02-14T06:31:53.916Z,6.75
2018-02-14T06:34:22.801Z,6.20
2018-02-14T06:36:51.708Z,6.50
2018-02-14T06:39:20.576Z,7.10
2018-02-14T06:41:49.456Z,6.75
2018-02-14T06:44:18.357Z,6.28
2018-02-14T06:46:47.388Z,5.28
2018-02-14T06:49:16.369Z,4.57
2018-02-14T06:51:45.262Z,5.97
2018-02-14T06:54:14.443Z,5.47
2018-02-14T06:56:43.308Z,7.25
2018-02-14T06:59:12.335Z,6.82
2018-02-14T07:01:41.218Z,6.28
2018-02-14T07:04:10.090Z,5.60
2018-02-14T07:06:38.995Z,5.35
2018-02-14T07:09:07.853Z,5.55
2018-02-14T07:11:36.726Z,7.72
2018-02-14T07:14:05.933Z,6.40
2018-02-14T07:16:34.813Z,6.00
2018-02-14T07:19:03.997Z,6.53
2018-02-14T07:21:32.909Z,5.78
2018-02-14T07:24:02.025Z,5.50
2018-02-14T07:26:30.901Z,5.55
2018-02-14T07:28:59.986Z,6.57
2018-02-14T07:31:28.865Z,6.32
2018-02-14T07:33:57.782Z,6.62
2018-02-14T07:36:26.672Z,7.35
2018-02-14T07:38:55.548Z,9.40
2018-02-14T07:41:24.431Z,7.37
2018-02-14T07:43:53.460Z,7.37
2018-02-14T07:46:22.356Z,7.50
2018-02-14T07:48:51.247Z,8.40
2018-02-14T07:51:20.149Z,7.90
2018-02-14T07:53:49.038Z,7.87
2018-02-14T07:56:17.904Z,8.57
2018-02-14T07:58:46.841Z,8.60
2018-02-14T08:01:15.868Z,8.98
2018-02-14T08:03:44.730Z,8.07
2018-02-14T08:06:13.668Z,6.15
2018-02-14T08:08:42.545Z,8.35
2018-02-14T08:11:11.417Z,8.15
2018-02-14T08:13:40.350Z,7.80
2018-02-14T08:16:09.370Z,7.53
2018-02-14T08:18:38.397Z,7.30
2018-02-14T08:21:07.724Z,7.50
2018-02-14T08:23:36.646Z,7.93
2018-02-14T08:26:05.565Z,8.38
2018-02-14T08:28:34.452Z,9.02
2018-02-14T08:31:03.344Z,8.43
2018-02-14T08:33:32.217Z,7.25
2018-02-14T08:36:01.122Z,8.60
2018-02-14T08:38:30.153Z,8.70
2018-02-14T08:40:59.021Z,9.63
2018-02-14T08:43:27.916Z,10.43
2018-02-14T08:45:56.795Z,7.70
2018-02-14T08:48:25.805Z,9.87
2018-02-14T08:50:54.733Z,8.17
2018-02-14T08:53:23.797Z,9.40
2018-02-14T08:55:52.673Z,9.93
2018-02-14T08:58:21.602Z,9.43
2018-02-14T09:00:50.501Z,8.17
2018-02-14T09:03:19.484Z,9.10
2018-02-14T09:05:48.414Z,9.73
2018-02-14T09:08:17.292Z,10.10
2018-02-14T09:10:46.165Z,9.40
2018-02-14T09:13:15.493Z,8.83
2018-02-14T09:15:44.378Z,8.17
2018-02-14T09:18:13.249Z,9.57
2018-02-14T09:20:42.147Z,10.33
2018-02-14T09:23:11.319Z,8.80
2018-02-14T09:25:40.201Z,9.87
2018-02-14T09:28:09.105Z,10.07
2018-02-14T09:30:37.979Z,8.83
2018-02-14T09:33:06.857Z,9.13
2018-02-14T09:35:35.930Z,9.90
2018-02-14T09:38:04.814Z,9.17
2018-02-14T09:40:33.803Z,9.27
2018-02-14T09:43:02.704Z,9.60
2018-02-14T09:45:31.573Z,9.70
2018-02-14T09:48:00.471Z,10.13
2018-02-14T09:50:29.385Z,10.30
2018-02-14T09:52:58.270Z,9.80
2018-02-14T09:55:27.133Z,9.63
2018-02-14T09:57:56.165Z,8.20
2018-02-14T10:00:25.045Z,9.00
2018-02-14T10:02:53.909Z,9.17
2018-02-14T10:05:22.800Z,9.57
2018-02-14T10:07:51.715Z,10.10
2018-02-14T10:10:20.607Z,9.27
2018-02-14T10:12:49.516Z,10.03
2018-02-14T10:15:18.519Z,9.37
2018-02-14T10:17:47.713Z,10.07
2018-02-14T10:20:16.629Z,9.53
2018-02-14T10:22:45.503Z,9.27
2018-02-14T10:25:14.552Z,9.23
2018-02-14T10:27:43.453Z,7.90
2018-02-14T10:30:12.372Z,10.60
2018-02-14T10:32:41.339Z,8.93
2018-02-14T10:35:10.284Z,9.57
2018-02-14T10:37:39.152Z,9.40
2018-02-14T10:40:08.080Z,8.67
2018-02-14T10:42:37.217Z,9.10
2018-02-14T10:45:06.103Z,8.93
2018-02-14T10:47:34.988Z,8.20
2018-02-14T10:50:03.911Z,10.13
2018-02-14T10:52:32.780Z,8.30
2018-02-14T10:55:01.663Z,9.10
2018-02-14T10:57:30.686Z,9.60
2018-02-14T10:59:59.557Z,8.73
2018-02-14T11:02:35.186Z,9.10
2018-02-14T11:05:10.049Z,7.57
2018-02-14T11:07:38.956Z,7.73
2018-02-14T11:10:07.834Z,7.00
2018-02-14T11:12:36.713Z,6.80
2018-02-14T11:15:05.628Z,8.40
2018-02-14T11:17:34.508Z,7.17
2018-02-14T11:20:03.380Z,6.30
2018-02-14T11:22:32.427Z,5.97
2018-02-14T11:25:01.286Z,6.00
2018-02-14T11:27:30.556Z,7.13
2018-02-14T11:29:59.473Z,5.78
2018-02-14T11:32:28.340Z,7.60
2018-02-14T11:34:57.237Z,6.87
2018-02-14T11:37:26.141Z,6.40
2018-02-14T11:39:55.007Z,5.50
2018-02-14T11:42:23.885Z,6.00
2018-02-14T11:44:52.829Z,6.43
2018-02-14T11:47:21.747Z,5.70
2018-02-14T11:49:50.599Z,5.77
2018-02-14T11:52:19.484Z,6.00
2018-02-14T11:54:48.360Z,5.47
2018-02-14T11:57:17.240Z,5.80
2018-02-14T11:59:46.132Z,5.30
2018-02-14T12:02:15.027Z,5.60
2018-02-14T12:04:43.893Z,5.10
2018-02-14T12:07:12.777Z,5.50
2018-02-14T12:09:41.658Z,6.13
2018-02-14T12:12:10.537Z,5.67
2018-02-14T12:14:39.419Z,6.07
2018-02-14T12:17:08.283Z,6.33
2018-02-14T12:19:37.190Z,7.20
2018-02-14T12:22:06.097Z,7.20
2018-02-14T12:24:34.969Z,5.97
2018-02-14T12:27:03.947Z,6.17
2018-02-14T12:29:33.072Z,5.50
2018-02-14T12:32:01.940Z,5.80
2018-02-14T12:34:30.808Z,5.53
2018-02-14T12:36:59.716Z,5.30
2018-02-14T12:39:28.581Z,5.70
2018-02-14T12:41:57.463Z,6.00
2018-02-14T12:44:26.405Z,4.40
2018-02-14T12:46:55.291Z,4.93
2018-02-14T12:49:24.171Z,4.77
2018-02-14T12:51:53.291Z,5.53
2018-02-14T12:54:22.152Z,5.07
2018-02-14T12:56:51.020Z,6.80
2018-02-14T12:59:19.917Z,5.90
2018-02-14T13:01:48.783Z,5.23
2018-02-14T13:04:17.649Z,6.30
2018-02-14T13:06:46.844Z,5.53
2018-02-14T13:09:15.728Z,6.10
2018-02-14T13:11:44.628Z,6.20
2018-02-14T13:14:13.533Z,6.13
2018-02-14T13:16:42.437Z,5.60
2018-02-14T13:19:11.326Z,5.83
2018-02-14T13:21:40.230Z,5.90
2018-02-14T13:24:09.105Z,6.20
2018-02-14T13:26:37.997Z,5.33
2018-02-14T13:29:06.913Z,5.03
2018-02-14T13:31:36.041Z,5.43
2018-02-14T13:34:04.931Z,4.83
2018-02-14T13:36:33.853Z,4.40
2018-02-14T13:39:02.729Z,4.47
2018-02-14T13:41:31.606Z,4.40
2018-02-14T13:44:00.519Z,4.53
2018-02-14T13:46:29.616Z,4.63
2018-02-14T13:48:58.504Z,4.30
2018-02-14T13:51:28.110Z,4.53
2018-02-14T13:53:57.000Z,4.70
2018-02-14T13:56:26.100Z,4.87
2018-02-14T13:58:54.991Z,4.67
2018-02-14T14:01:23.867Z,4.30
2018-02-14T14:03:52.739Z,6.20
2018-02-14T14:06:21.624Z,5.70
2018-02-14T14:08:50.490Z,5.20
2018-02-14T14:11:19.382Z,4.33
2018-02-14T14:13:49.157Z,5.63
2018-02-14T14:16:18.135Z,4.93
2018-02-14T14:18:47.020Z,5.33
2018-02-14T14:21:16.006Z,6.20
2018-02-14T14:23:44.873Z,5.70
2018-02-14T14:26:13.735Z,5.20
2018-02-14T14:28:42.613Z,5.67
2018-02-14T14:31:11.484Z,7.50
2018-02-14T14:33:40.589Z,5.60
2018-02-14T14:36:09.473Z,6.00
2018-02-14T14:38:38.359Z,6.70
2018-02-14T14:41:07.496Z,6.50
2018-02-14T14:43:36.401Z,5.47
2018-02-14T14:46:05.323Z,5.47
2018-02-14T14:48:34.245Z,6.87
2018-02-14T14:51:03.115Z,5.57
2018-02-14T14:53:31.987Z,5.20
2018-02-14T14:56:00.868Z,5.23
2018-02-14T14:58:29.823Z,5.57
2018-02-14T15:00:58.809Z,7.50
2018-02-14T15:03:27.689Z,6.50
2018-02-14T15:05:56.580Z,5.83
2018-02-14T15:08:25.436Z,5.50
2018-02-14T15:10:54.357Z,6.50
2018-02-14T15:13:23.263Z,6.50
2018-02-14T15:15:52.129Z,6.63
2018-02-14T15:18:21.005Z,7.87
2018-02-14T15:20:49.907Z,4.90
2018-02-14T15:23:18.833Z,5.80
2018-02-14T15:25:47.695Z,5.37
2018-02-14T15:28:16.589Z,5.83
2018-02-14T15:30:45.451Z,5.60
2018-02-14T15:33:14.325Z,6.40
2018-02-14T15:35:43.518Z,6.37
2018-02-14T15:38:12.391Z,5.27
2018-02-14T15:40:41.273Z,6.30
2018-02-14T15:43:10.168Z,5.40
2018-02-14T15:45:39.028Z,5.90
2018-02-14T15:48:07.893Z,5.80
2018-02-14T15:50:36.952Z,6.33
2018-02-14T15:53:05.881Z,6.70
2018-02-14T15:55:34.744Z,5.37
2018-02-14T15:58:03.641Z,5.60
2018-02-14T16:00:32.557Z,5.33
2018-02-14T16:03:01.452Z,5.73
2018-02-14T16:05:30.429Z,4.77
2018-02-14T16:07:59.287Z,5.33
2018-02-14T16:10:28.159Z,5.30
2018-02-14T16:12:57.050Z,6.60
2018-02-14T16:15:25.915Z,6.20
2018-02-14T16:17:54.787Z,6.83
2018-02-14T16:20:23.706Z,4.83
2018-02-14T16:22:52.615Z,6.20
2018-02-14T16:25:20.562Z,5.57
2018-02-14T16:27:48.194Z,6.13
2018-02-14T16:30:15.715Z,5.90
2018-02-14T16:32:43.998Z,5.10
2018-02-14T16:35:11.664Z,5.60
2018-02-14T16:37:39.400Z,4.80
2018-02-14T16:40:07.742Z,5.80
2018-02-14T16:42:36.405Z,5.17
2018-02-14T16:45:04.812Z,5.40
2018-02-14T16:47:32.479Z,5.33
2018-02-14T16:50:00.185Z,4.93
2018-02-14T16:52:27.716Z,5.73
2018-02-14T16:54:55.293Z,5.70
2018-02-14T16:57:23.656Z,4.73
2018-02-14T16:59:51.301Z,7.77
2018-02-14T17:02:18.891Z,6.50
2018-02-14T17:04:47.364Z,6.27
2018-02-14T17:07:14.899Z,7.30
2018-02-14T17:09:42.476Z,5.63
2018-02-14T17:12:10.230Z,5.70
2018-02-14T17:14:37.764Z,6.50
2018-02-14T17:17:05.328Z,5.83
2018-02-14T17:19:32.982Z,6.50
2018-02-14T17:22:00.504Z,5.20
2018-02-14T17:24:28.921Z,5.70
2018-02-14T17:26:56.577Z,4.77
2018-02-14T17:29:24.706Z,6.47
2018-02-14T17:31:53.745Z,5.73
2018-02-14T17:34:22.857Z,6.30
2018-02-14T17:36:51.767Z,7.10
2018-02-14T17:39:21.193Z,5.93
2018-02-14T17:41:50.104Z,5.80
2018-02-14T17:44:19.060Z,5.63
2018-02-14T17:46:47.930Z,5.30
2018-02-14T17:49:16.922Z,5.67
2018-02-14T17:51:44.454Z,5.20
2018-02-14T17:54:12.329Z,5.13
2018-02-14T17:56:39.901Z,6.60
2018-02-14T17:59:07.425Z,5.47
2018-02-14T18:01:34.972Z,5.40
2018-02-14T18:04:02.774Z,5.80
2018-02-14T18:06:30.328Z,4.53
2018-02-14T18:08:57.855Z,7.27
2018-02-14T18:11:25.425Z,4.87
2018-02-14T18:13:53.739Z,5.40
2018-02-14T18:16:21.277Z,4.80
2018-02-14T18:18:50.212Z,5.60
2018-02-14T18:21:19.094Z,6.13
2018-02-14T18:23:47.969Z,5.90
2018-02-14T18:26:16.876Z,6.50
2018-02-14T18:28:45.828Z,6.60
2018-02-14T18:31:14.701Z,6.07
2018-02-14T18:33:43.623Z,6.43
2018-02-14T18:36:12.498Z,6.20
2018-02-14T18:38:41.441Z,5.30
2018-02-14T18:41:10.766Z,6.70
2018-02-14T18:43:39.662Z,5.60
2018-02-14T18:46:08.548Z,6.97
2018-02-14T18:48:37.446Z,5.50
2018-02-14T18:51:06.312Z,4.40
2018-02-14T18:53:35.185Z,7.40
2018-02-14T18:56:04.118Z,5.93
2018-02-14T18:58:33.012Z,6.67
2018-02-14T19:01:01.899Z,5.93
2018-02-14T19:03:30.789Z,7.00
2018-02-14T19:05:59.685Z,5.47
2018-02-14T19:08:28.566Z,7.97
2018-02-14T19:10:57.468Z,7.80
2018-02-14T19:13:26.354Z,6.87
2018-02-14T19:15:55.248Z,8.87
2018-02-14T19:18:24.930Z,7.37
2018-02-14T19:20:53.822Z,8.07
2018-02-14T19:23:22.710Z,7.20
2018-02-14T19:25:51.625Z,8.75
2018-02-14T19:28:20.529Z,7.83
2018-02-14T19:30:49.414Z,7.37
2018-02-14T19:33:18.308Z,7.40
2018-02-14T19:35:47.191Z,6.07
2018-02-14T19:38:16.069Z,7.78
2018-02-14T19:40:44.978Z,7.27
2018-02-14T19:43:14.273Z,6.97
2018-02-14T19:45:43.157Z,5.40
2018-02-14T19:48:12.065Z,7.80
2018-02-14T19:50:40.966Z,5.87
2018-02-14T19:53:09.853Z,6.70
2018-02-14T19:55:38.781Z,7.30
2018-02-14T19:58:07.707Z,7.20
2018-02-14T20:00:36.616Z,7.62
2018-02-14T20:03:05.601Z,7.23
2018-02-14T20:05:34.769Z,6.82
2018-02-14T20:08:03.944Z,7.20
2018-02-14T20:10:33.154Z,6.57
2018-02-14T20:13:02.033Z,6.25
2018-02-14T20:15:30.908Z,7.00
2018-02-14T20:18:00.989Z,6.45
2018-02-14T20:20:29.930Z,6.78
2018-02-14T20:22:58.902Z,7.12
2018-02-14T20:25:27.887Z,6.78
2018-02-14T20:27:56.812Z,7.18
2018-02-14T20:30:25.760Z,6.47
2018-02-14T20:32:54.867Z,7.22
2018-02-14T20:35:23.747Z,7.70
2018-02-14T20:37:52.976Z,8.02
2018-02-14T20:40:21.868Z,6.50
2018-02-14T20:42:51.120Z,8.48
2018-02-14T20:45:22.785Z,6.57
2018-02-14T20:47:51.704Z,6.78
2018-02-14T20:50:20.605Z,6.35
2018-02-14T20:52:49.894Z,8.52
2018-02-14T20:55:18.850Z,6.25
2018-02-14T20:57:51.505Z,7.12
2018-02-14T21:00:20.408Z,5.70
2018-02-14T21:02:49.294Z,5.68
2018-02-14T21:05:18.582Z,7.30
2018-02-14T21:07:47.492Z,6.43
2018-02-14T21:10:16.503Z,6.32
2018-02-14T21:12:45.437Z,6.15
2018-02-14T21:15:14.335Z,6.35
2018-02-14T21:17:43.448Z,7.57
2018-02-14T21:20:12.484Z,6.72
2018-02-14T21:22:41.531Z,6.22
2018-02-14T21:25:10.770Z,6.80
2018-02-14T21:27:39.804Z,7.60
2018-02-14T21:30:08.739Z,7.68
2018-02-14T21:32:38.557Z,7.82
2018-02-14T21:35:07.468Z,7.50
2018-02-14T21:37:36.576Z,7.78
2018-02-14T21:40:05.464Z,8.45
2018-02-14T21:42:34.559Z,9.35
2018-02-14T21:45:03.437Z,9.02
2018-02-14T21:47:32.967Z,6.60
2018-02-14T21:50:01.890Z,7.03
2018-02-14T21:52:30.782Z,6.30
2018-02-14T21:54:59.659Z,6.85
2018-02-14T21:57:28.565Z,7.25
2018-02-14T21:59:57.445Z,7.65
2018-02-14T22:02:26.329Z,7.12
2018-02-14T22:04:55.646Z,8.43
2018-02-14T22:07:24.520Z,7.10
2018-02-14T22:09:53.399Z,8.00
2018-02-14T22:12:22.295Z,7.90
2018-02-14T22:14:51.173Z,6.68
2018-02-14T22:17:20.075Z,8.10
2018-02-14T22:19:48.994Z,7.50
2018-02-14T22:22:17.861Z,6.78
2018-02-14T22:24:46.729Z,7.05
2018-02-14T22:27:15.636Z,6.85
2018-02-14T22:29:44.511Z,7.05
2018-02-14T22:32:13.413Z,7.07
2018-02-14T22:34:42.309Z,7.93
2018-02-14T22:37:11.546Z,7.03
2018-02-14T22:39:40.549Z,6.70
2018-02-14T22:42:09.424Z,6.90
2018-02-14T22:44:38.292Z,6.45
2018-02-14T22:47:07.169Z,8.82
2018-02-14T22:49:36.297Z,7.62
2018-02-14T22:52:05.165Z,6.75
2018-02-14T22:54:34.029Z,8.43
2018-02-14T22:57:02.947Z,6.80
2018-02-14T22:59:31.825Z,7.47
2018-02-14T23:02:00.947Z,6.60
2018-02-14T23:04:29.843Z,7.05
2018-02-14T23:06:58.741Z,7.10
2018-02-14T23:09:27.617Z,7.50
2018-02-14T23:11:56.495Z,7.10
2018-02-14T23:14:25.358Z,7.35
2018-02-14T23:16:54.245Z,5.75
2018-02-14T23:19:23.141Z,7.55
2018-02-14T23:21:52.015Z,8.13
2018-02-14T23:24:20.887Z,8.18
2018-02-14T23:26:49.959Z,7.43
2018-02-14T23:29:18.825Z,8.20
2018-02-14T23:31:47.699Z,6.28
2018-02-14T23:34:16.597Z,8.10
2018-02-14T23:36:45.467Z,6.53
2018-02-14T23:39:14.353Z,8.25
2018-02-14T23:41:43.248Z,8.13
2018-02-14T23:44:12.127Z,8.70
2018-02-14T23:46:41.106Z,7.65
2018-02-14T23:49:09.990Z,7.90
2018-02-14T23:51:39.103Z,7.10
2018-02-14T23:54:07.975Z,8.00
2018-02-14T23:56:36.872Z,8.18
2018-02-14T23:59:05.749Z,7.95
